createdAt,value
2022-12-31T00:02:53.922Z,13.05
2022-12-31T00:32:57.753Z,9.64
2022-12-31T01:03:01.686Z,11.12
2022-12-31T01:33:04.623Z,11.67
2022-12-31T02:03:08.472Z,11.47
2022-12-31T02:33:11.393Z,13.15
2022-12-31T03:03:15.327Z,14.37
2022-12-31T03:33:18.210Z,11.80
2022-12-31T04:03:22.662Z,13.57
2022-12-31T04:33:25.772Z,11.94
2022-12-31T05:03:29.960Z,12.24
2022-12-31T05:33:33.463Z,13.17
2022-12-31T06:03:38.164Z,10.97
2022-12-31T06:33:41.049Z,11.85
2022-12-31T07:03:45.001Z,13.74
2022-12-31T07:33:47.959Z,15.46
2022-12-31T08:03:52.271Z,13.76
2022-12-31T08:33:56.222Z,16.15
2022-12-31T09:04:02.840Z,13.50
2022-12-31T09:34:05.706Z,16.79
2022-12-31T10:04:09.739Z,15.12
2022-12-31T10:34:12.719Z,18.01
2022-12-31T11:04:16.602Z,16.75
2022-12-31T11:34:20.063Z,18.67
2022-12-31T12:04:25.622Z,17.49
2022-12-31T12:34:28.474Z,18.49
2022-12-31T13:04:34.648Z,19.32
2022-12-31T13:34:38.117Z,18.84
2022-12-31T14:04:43.296Z,18.01
2022-12-31T14:34:46.155Z,19.29
2022-12-31T15:04:50.958Z,17.94
2022-12-31T15:34:53.774Z,17.46
2022-12-31T16:04:58.144Z,17.42
2022-12-31T16:35:01.018Z,17.56
2022-12-31T17:05:04.609Z,17.64
2022-12-31T17:35:07.420Z,19.19
2022-12-31T18:05:11.925Z,17.26
2022-12-31T18:35:33.271Z,17.95
2022-12-31T19:05:39.588Z,18.32
2022-12-31T19:35:42.511Z,17.08
2022-12-31T20:05:49.215Z,18.66
2022-12-31T20:35:52.667Z,17.78
2022-12-31T21:05:57.521Z,17.12
2022-12-31T21:36:04.570Z,18.12
2022-12-31T22:06:08.508Z,17.87
2022-12-31T22:36:11.635Z,17.78
2022-12-31T23:06:14.566Z,17.81
2022-12-31T23:36:17.852Z,18.81
